createdAt,value
2019-03-28T00:00:44.913Z,0.00
2019-03-28T00:01:44.832Z,0.00
2019-03-28T00:02:44.822Z,0.00
2019-03-28T00:03:44.783Z,0.00
2019-03-28T00:04:44.831Z,0.00
2019-03-28T00:05:44.732Z,0.00
2019-03-28T00:06:44.740Z,0.00
2019-03-28T00:07:44.676Z,0.00
2019-03-28T00:08:44.752Z,0.00
2019-03-28T00:09:45.147Z,0.00
2019-03-28T00:10:44.592Z,0.00
2019-03-28T00:11:44.563Z,0.00
2019-03-28T00:12:44.600Z,0.00
2019-03-28T00:13:44.521Z,0.00
2019-03-28T00:14:44.600Z,0.00
2019-03-28T00:15:44.463Z,0.00
2019-03-28T00:16:44.431Z,0.00
2019-03-28T00:17:44.500Z,0.00
2019-03-28T00:18:44.396Z,0.00
2019-03-28T00:19:44.503Z,0.00
2019-03-28T00:20:44.334Z,0.00
2019-03-28T00:21:44.303Z,0.00
2019-03-28T00:22:44.279Z,0.00
2019-03-28T00:23:44.346Z,0.00
2019-03-28T00:24:44.234Z,0.00
2019-03-28T00:25:44.252Z,0.00
2019-03-28T00:26:44.173Z,0.00
2019-03-28T00:27:44.142Z,0.00
2019-03-28T00:28:44.164Z,0.00
2019-03-28T00:29:44.093Z,0.00
2019-03-28T00:30:44.425Z,0.00
2019-03-28T00:31:44.051Z,0.00
2019-03-28T00:32:44.016Z,0.00
2019-03-28T00:33:44.380Z,0.00
2019-03-28T00:34:44.003Z,0.00
2019-03-28T00:35:43.931Z,0.00
2019-03-28T00:36:44.013Z,0.00
2019-03-28T00:37:43.883Z,0.00
2019-03-28T00:38:43.852Z,0.00
2019-03-28T00:39:43.826Z,0.00
2019-03-28T00:40:43.843Z,0.00
2019-03-28T00:41:43.770Z,0.00
2019-03-28T00:42:43.854Z,0.00
2019-03-28T00:43:43.720Z,0.00
2019-03-28T00:44:43.752Z,0.00
2019-03-28T00:45:44.669Z,0.00
2019-03-28T00:46:43.664Z,0.00
2019-03-28T00:47:43.611Z,0.00
2019-03-28T00:48:43.692Z,0.00
2019-03-28T00:49:43.581Z,0.00
2019-03-28T00:50:43.533Z,0.00
2019-03-28T00:51:43.593Z,0.00
2019-03-28T00:52:43.482Z,0.00
2019-03-28T00:53:43.502Z,0.00
2019-03-28T00:54:43.433Z,0.00
2019-03-28T00:55:43.401Z,0.00
2019-03-28T00:56:47.165Z,0.00
2019-03-28T00:57:44.097Z,0.00
2019-03-28T00:58:43.446Z,0.00
2019-03-28T00:59:43.310Z,0.00
2019-03-28T01:00:43.274Z,0.00
2019-03-28T01:01:43.253Z,0.00
2019-03-28T01:02:43.257Z,0.00
2019-03-28T01:03:43.193Z,0.00
2019-03-28T01:04:44.184Z,0.00
2019-03-28T01:05:43.142Z,0.00
2019-03-28T01:06:43.111Z,0.00
2019-03-28T01:07:43.180Z,0.00
2019-03-28T01:08:43.060Z,0.00
2019-03-28T01:09:43.096Z,0.00
2019-03-28T01:10:43.070Z,0.00
2019-03-28T01:11:42.995Z,0.00
2019-03-28T01:12:42.954Z,0.00
2019-03-28T01:13:43.290Z,0.00
2019-03-28T01:14:42.900Z,0.00
2019-03-28T01:15:42.998Z,0.00
2019-03-28T01:16:42.862Z,0.00
2019-03-28T01:17:42.822Z,0.00
2019-03-28T01:18:42.841Z,0.00
2019-03-28T01:19:42.773Z,0.00
2019-03-28T01:20:42.852Z,0.00
2019-03-28T01:21:42.713Z,0.00
2019-03-28T01:22:42.693Z,0.00
2019-03-28T01:23:42.662Z,0.00
2019-03-28T01:24:42.670Z,0.00
2019-03-28T01:25:42.604Z,0.00
2019-03-28T01:26:42.693Z,0.00
2019-03-28T01:27:42.552Z,0.00
2019-03-28T01:28:42.534Z,0.00
2019-03-28T01:29:42.502Z,0.00
2019-03-28T01:30:42.515Z,0.00
2019-03-28T01:31:42.452Z,0.00
2019-03-28T01:32:42.520Z,0.00
2019-03-28T01:33:43.155Z,0.00
2019-03-28T01:34:42.433Z,0.00
2019-03-28T01:35:42.345Z,0.00
2019-03-28T01:36:42.352Z,0.00
2019-03-28T01:37:42.291Z,0.00
2019-03-28T01:38:42.353Z,0.00
2019-03-28T01:39:42.275Z,0.00
2019-03-28T01:40:42.214Z,0.00
2019-03-28T01:41:42.359Z,0.00
2019-03-28T01:42:42.164Z,0.00
2019-03-28T01:43:42.182Z,0.00
2019-03-28T01:44:42.112Z,0.00
2019-03-28T01:45:42.071Z,0.00
2019-03-28T01:46:42.102Z,0.00
2019-03-28T01:47:42.022Z,0.00
2019-03-28T01:48:42.110Z,0.00
2019-03-28T01:49:41.972Z,0.00
2019-03-28T01:50:41.943Z,0.00
2019-03-28T01:51:41.925Z,0.00
2019-03-28T01:52:41.933Z,0.00
2019-03-28T01:53:41.861Z,0.00
2019-03-28T01:54:41.943Z,0.00
2019-03-28T01:55:41.810Z,0.00
2019-03-28T01:56:41.784Z,0.00
2019-03-28T01:57:41.865Z,0.00
2019-03-28T01:58:41.732Z,0.00
2019-03-28T01:59:41.773Z,0.00
2019-03-28T02:00:41.682Z,0.00
2019-03-28T02:01:41.658Z,0.00
2019-03-28T02:02:41.627Z,0.00
2019-03-28T02:03:41.696Z,0.00
2019-03-28T02:04:41.579Z,0.00
2019-03-28T02:05:41.604Z,0.00
2019-03-28T02:06:41.522Z,0.00
2019-03-28T02:07:41.493Z,0.00
2019-03-28T02:08:41.546Z,0.00
2019-03-28T02:09:41.454Z,0.00
2019-03-28T02:10:41.432Z,0.00
2019-03-28T02:11:41.381Z,0.00
2019-03-28T02:12:41.447Z,0.00
2019-03-28T02:13:41.331Z,0.00
2019-03-28T02:14:41.355Z,0.00
2019-03-28T02:15:41.292Z,0.00
2019-03-28T02:16:41.360Z,0.00
2019-03-28T02:17:41.226Z,0.00
2019-03-28T02:18:41.203Z,0.00
2019-03-28T02:19:41.257Z,0.00
2019-03-28T02:20:41.195Z,0.00
2019-03-28T02:21:41.133Z,0.00
2019-03-28T02:22:41.192Z,0.00
2019-03-28T02:23:41.061Z,0.00
2019-03-28T02:24:41.102Z,0.00
2019-03-28T02:25:41.018Z,0.00
2019-03-28T02:26:41.011Z,0.00
2019-03-28T02:27:40.976Z,0.00
2019-03-28T02:28:41.177Z,0.00
2019-03-28T02:29:40.935Z,0.00
2019-03-28T02:30:40.887Z,0.00
2019-03-28T02:31:42.909Z,0.00
2019-03-28T02:32:40.831Z,0.00
2019-03-28T02:33:40.856Z,0.00
2019-03-28T02:34:40.779Z,0.00
2019-03-28T02:35:40.741Z,0.00
2019-03-28T02:36:40.776Z,0.00
2019-03-28T02:37:40.693Z,0.00
2019-03-28T02:38:40.685Z,0.00
2019-03-28T02:39:40.656Z,0.00
2019-03-28T02:40:40.619Z,0.00
2019-03-28T02:41:40.582Z,0.00
2019-03-28T02:42:40.626Z,0.00
2019-03-28T02:43:40.549Z,0.00
2019-03-28T02:44:40.622Z,0.00
2019-03-28T02:45:40.483Z,0.00
2019-03-28T02:46:40.454Z,0.00
2019-03-28T02:47:40.533Z,0.00
2019-03-28T02:48:40.405Z,0.00
2019-03-28T02:49:40.457Z,0.00
2019-03-28T02:50:40.354Z,0.00
2019-03-28T02:51:40.313Z,0.00
2019-03-28T02:52:40.290Z,0.00
2019-03-28T02:53:40.387Z,0.00
2019-03-28T02:54:40.241Z,0.00
2019-03-28T02:55:40.273Z,0.00
2019-03-28T02:56:40.181Z,0.00
2019-03-28T02:57:42.278Z,0.00
2019-03-28T02:58:40.194Z,0.00
2019-03-28T02:59:40.105Z,0.00
2019-03-28T03:00:48.064Z,0.00
2019-03-28T03:02:44.114Z,0.00
2019-03-28T03:03:44.095Z,0.00
2019-03-28T03:05:48.081Z,0.00
2019-03-28T03:06:47.992Z,0.00
2019-03-28T03:08:51.993Z,0.00
2019-03-28T03:09:51.905Z,0.00
2019-03-28T03:11:56.938Z,0.00
2019-03-28T03:12:55.822Z,0.00
2019-03-28T03:14:59.813Z,0.00
2019-03-28T03:15:59.711Z,0.00
2019-03-28T03:18:03.723Z,0.00
2019-03-28T03:19:03.648Z,0.00
2019-03-28T03:21:07.623Z,0.00
2019-03-28T03:22:07.542Z,0.00
2019-03-28T03:24:11.533Z,0.00
2019-03-28T03:25:11.554Z,0.00
2019-03-28T03:27:04.392Z,0.00
2019-03-28T03:28:04.290Z,0.00
2019-03-28T03:30:08.421Z,0.00
2019-03-28T03:31:08.301Z,0.00
2019-03-28T03:33:12.312Z,0.00
2019-03-28T03:34:12.251Z,0.00
2019-03-28T03:36:16.408Z,0.00
2019-03-28T03:37:16.245Z,0.00
2019-03-28T03:39:20.242Z,0.00
2019-03-28T03:40:20.133Z,0.00
2019-03-28T03:42:24.191Z,0.00
2019-03-28T03:43:24.211Z,0.00
2019-03-28T03:45:28.260Z,0.00
2019-03-28T03:46:28.160Z,0.00
2019-03-28T03:48:32.170Z,0.00
2019-03-28T03:49:32.080Z,0.00
2019-03-28T03:51:36.196Z,0.00
2019-03-28T03:52:36.081Z,0.00
2019-03-28T03:54:40.092Z,0.00
2019-03-28T03:55:40.023Z,0.00
2019-03-28T03:57:44.016Z,0.00
2019-03-28T03:58:43.973Z,0.00
2019-03-28T04:00:47.912Z,0.00
2019-03-28T04:01:47.811Z,0.00
2019-03-28T04:03:51.824Z,0.00
2019-03-28T04:04:51.722Z,0.00
2019-03-28T04:06:44.677Z,0.00
2019-03-28T04:07:44.576Z,0.00
2019-03-28T04:09:48.541Z,0.00
2019-03-28T04:10:48.481Z,0.00
2019-03-28T04:12:52.492Z,0.00
2019-03-28T04:13:52.391Z,0.00
2019-03-28T04:15:56.404Z,0.00
2019-03-28T04:16:56.315Z,0.00
2019-03-28T04:19:00.319Z,0.00
2019-03-28T04:20:00.506Z,0.00
2019-03-28T04:22:04.222Z,0.00
2019-03-28T04:23:04.275Z,0.00
2019-03-28T04:25:08.144Z,0.00
2019-03-28T04:26:08.034Z,0.00
2019-03-28T04:28:12.695Z,0.00
2019-03-28T04:29:11.959Z,0.00
2019-03-28T04:31:15.965Z,0.00
2019-03-28T04:32:15.927Z,0.00
2019-03-28T04:34:19.987Z,0.00
2019-03-28T04:35:19.878Z,0.00
2019-03-28T04:37:12.817Z,0.00
2019-03-28T04:38:12.722Z,0.00
2019-03-28T04:40:16.720Z,0.00
2019-03-28T04:41:16.633Z,0.00
2019-03-28T04:43:20.600Z,0.00
2019-03-28T04:44:21.649Z,0.00
2019-03-28T04:46:24.544Z,0.00
2019-03-28T04:47:24.453Z,0.00
2019-03-28T04:49:28.454Z,0.00
2019-03-28T04:50:28.363Z,0.00
2019-03-28T04:52:32.485Z,0.00
2019-03-28T04:53:32.373Z,0.00
2019-03-28T04:55:36.383Z,0.00
2019-03-28T04:56:36.287Z,0.00
2019-03-28T04:58:44.640Z,0.00
2019-03-28T04:59:40.195Z,0.00
2019-03-28T05:01:44.303Z,0.00
2019-03-28T05:02:46.056Z,0.00
2019-03-28T05:04:48.212Z,0.00
2019-03-28T05:05:48.182Z,0.00
2019-03-28T05:07:52.121Z,4.00
2019-03-28T05:08:52.042Z,0.00
2019-03-28T05:10:56.131Z,4.00
2019-03-28T05:11:56.040Z,0.00
2019-03-28T05:14:00.054Z,4.00
2019-03-28T05:14:59.954Z,4.00
2019-03-28T05:16:52.831Z,4.00
2019-03-28T05:17:52.804Z,8.00
2019-03-28T05:19:56.801Z,4.00
2019-03-28T05:20:56.714Z,8.00
2019-03-28T05:23:00.725Z,8.00
2019-03-28T05:24:00.619Z,8.00
2019-03-28T05:26:04.623Z,8.00
2019-03-28T05:27:04.522Z,12.00
2019-03-28T05:29:08.531Z,12.00
2019-03-28T05:30:08.434Z,16.00
2019-03-28T05:32:12.444Z,16.00
2019-03-28T05:33:12.357Z,16.00
2019-03-28T05:35:16.352Z,16.00
2019-03-28T05:36:16.255Z,20.00
2019-03-28T05:37:16.352Z,20.00
2019-03-28T05:38:16.204Z,24.00
2019-03-28T05:39:16.174Z,24.00
2019-03-28T05:40:16.147Z,28.00
2019-03-28T05:41:17.503Z,28.00
2019-03-28T05:42:16.095Z,28.00
2019-03-28T05:43:16.164Z,32.00
2019-03-28T05:44:16.060Z,36.00
2019-03-28T05:45:16.014Z,36.00
2019-03-28T05:46:16.074Z,36.00
2019-03-28T05:47:15.963Z,36.00
2019-03-28T05:48:15.984Z,36.00
2019-03-28T05:49:15.904Z,40.00
2019-03-28T05:50:15.873Z,40.00
2019-03-28T05:51:15.866Z,44.00
2019-03-28T05:52:15.923Z,44.00
2019-03-28T05:53:15.803Z,48.00
2019-03-28T05:54:16.852Z,48.00
2019-03-28T05:55:15.744Z,48.00
2019-03-28T05:56:15.724Z,52.00
2019-03-28T05:57:15.753Z,52.00
2019-03-28T05:58:15.663Z,56.00
2019-03-28T05:59:15.755Z,60.00
2019-03-28T06:00:15.616Z,64.00
2019-03-28T06:01:15.584Z,72.00
2019-03-28T06:02:15.564Z,76.00
2019-03-28T06:03:16.294Z,80.00
2019-03-28T06:04:15.503Z,84.00
2019-03-28T06:05:15.583Z,92.00
2019-03-28T06:06:15.458Z,96.00
2019-03-28T06:07:15.423Z,100.00
2019-03-28T06:08:15.514Z,104.00
2019-03-28T06:09:15.380Z,108.00
2019-03-28T06:10:16.494Z,116.00
2019-03-28T06:11:15.331Z,120.00
2019-03-28T06:12:15.323Z,124.00
2019-03-28T06:13:15.263Z,128.00
2019-03-28T06:14:15.346Z,136.00
2019-03-28T06:15:15.227Z,140.00
2019-03-28T06:16:15.254Z,144.00
2019-03-28T06:17:15.153Z,152.00
2019-03-28T06:18:15.135Z,160.00
2019-03-28T06:19:15.165Z,164.00
2019-03-28T06:20:15.084Z,168.00
2019-03-28T06:21:15.078Z,180.00
2019-03-28T06:22:15.017Z,184.00
2019-03-28T06:23:15.082Z,188.00
2019-03-28T06:24:14.976Z,196.00
2019-03-28T06:25:15.005Z,200.00
2019-03-28T06:26:15.594Z,204.00
2019-03-28T06:27:14.904Z,208.00
2019-03-28T06:28:14.881Z,212.00
2019-03-28T06:29:23.644Z,216.00
2019-03-28T06:30:14.803Z,224.00
2019-03-28T06:31:15.847Z,232.00
2019-03-28T06:32:14.753Z,240.00
2019-03-28T06:33:14.854Z,244.00
2019-03-28T06:34:14.714Z,248.00
2019-03-28T06:35:14.674Z,256.00
2019-03-28T06:36:14.643Z,260.00
2019-03-28T06:37:14.670Z,260.00
2019-03-28T06:38:14.593Z,264.00
2019-03-28T06:39:14.672Z,268.00
2019-03-28T06:40:14.554Z,272.00
2019-03-28T06:41:14.587Z,272.00
2019-03-28T06:42:14.483Z,276.00
2019-03-28T06:43:14.516Z,280.00
2019-03-28T06:44:14.444Z,284.00
2019-03-28T06:45:14.540Z,292.00
2019-03-28T06:46:14.384Z,296.00
2019-03-28T06:47:14.413Z,304.00
2019-03-28T06:48:14.324Z,316.00
2019-03-28T06:49:14.333Z,320.00
2019-03-28T06:50:14.274Z,328.00
2019-03-28T06:51:14.244Z,336.00
2019-03-28T06:52:14.252Z,348.00
2019-03-28T06:53:14.244Z,352.00
2019-03-28T06:54:14.163Z,356.00
2019-03-28T06:55:14.159Z,364.00
2019-03-28T06:56:14.112Z,368.00
2019-03-28T06:57:14.088Z,372.00
2019-03-28T06:58:14.073Z,380.00
2019-03-28T06:59:14.038Z,384.00
2019-03-28T07:00:14.091Z,388.00
2019-03-28T07:01:13.998Z,392.00
2019-03-28T07:02:13.959Z,392.00
2019-03-28T07:03:13.926Z,396.00
2019-03-28T07:04:14.014Z,400.00
2019-03-28T07:05:13.873Z,408.00
2019-03-28T07:06:14.514Z,416.00
2019-03-28T07:07:13.816Z,428.00
2019-03-28T07:08:13.823Z,436.00
2019-03-28T07:09:13.764Z,444.00
2019-03-28T07:10:13.845Z,452.00
2019-03-28T07:11:13.714Z,456.00
2019-03-28T07:12:13.757Z,464.00
2019-03-28T07:13:13.822Z,464.00
2019-03-28T07:14:13.631Z,468.00
2019-03-28T07:15:13.732Z,472.00
2019-03-28T07:16:13.593Z,480.00
2019-03-28T07:17:13.641Z,484.00
2019-03-28T07:18:13.521Z,492.00
2019-03-28T07:19:13.677Z,512.00
2019-03-28T07:20:13.499Z,532.00
2019-03-28T07:21:13.575Z,556.00
2019-03-28T07:22:13.432Z,584.00
2019-03-28T07:23:13.512Z,608.00
2019-03-28T07:24:13.492Z,632.00
2019-03-28T07:25:13.355Z,656.00
2019-03-28T07:26:13.409Z,676.00
2019-03-28T07:27:13.284Z,684.00
2019-03-28T07:28:13.316Z,684.00
2019-03-28T07:29:13.235Z,688.00
2019-03-28T07:30:13.225Z,684.00
2019-03-28T07:31:13.182Z,684.00
2019-03-28T07:32:13.260Z,684.00
2019-03-28T07:33:13.123Z,680.00
2019-03-28T07:34:13.620Z,676.00
2019-03-28T07:35:13.076Z,676.00
2019-03-28T07:36:13.061Z,672.00
2019-03-28T07:37:13.025Z,668.00
2019-03-28T07:38:13.143Z,656.00
2019-03-28T07:39:13.469Z,656.00
2019-03-28T07:40:12.938Z,656.00
2019-03-28T07:41:12.921Z,652.00
2019-03-28T07:42:12.905Z,656.00
2019-03-28T07:43:12.867Z,656.00
2019-03-28T07:44:12.910Z,660.00
2019-03-28T07:45:12.816Z,668.00
2019-03-28T07:46:12.783Z,672.00
2019-03-28T07:47:12.842Z,676.00
2019-03-28T07:48:12.732Z,684.00
2019-03-28T07:49:12.741Z,688.00
2019-03-28T07:50:12.694Z,692.00
2019-03-28T07:51:12.650Z,696.00
2019-03-28T07:52:12.631Z,700.00
2019-03-28T07:53:12.672Z,704.00
2019-03-28T07:54:13.326Z,712.00
2019-03-28T07:55:12.586Z,724.00
2019-03-28T07:56:12.530Z,732.00
2019-03-28T07:57:12.602Z,740.00
2019-03-28T07:58:12.483Z,740.00
2019-03-28T07:59:12.511Z,732.00
2019-03-28T08:00:12.425Z,728.00
2019-03-28T08:01:12.421Z,716.00
2019-03-28T08:02:12.433Z,708.00
2019-03-28T08:03:12.342Z,700.00
2019-03-28T08:04:12.458Z,696.00
2019-03-28T08:05:12.291Z,704.00
2019-03-28T08:06:12.871Z,700.00
2019-03-28T08:07:12.232Z,696.00
2019-03-28T08:08:12.261Z,688.00
2019-03-28T08:09:12.182Z,688.00
2019-03-28T08:10:12.222Z,688.00
2019-03-28T08:11:12.152Z,684.00
2019-03-28T08:12:22.523Z,688.00
2019-03-28T08:13:12.082Z,696.00
2019-03-28T08:14:12.108Z,712.00
2019-03-28T08:15:12.075Z,720.00
2019-03-28T08:16:12.131Z,736.00
2019-03-28T08:17:11.972Z,744.00
2019-03-28T08:18:12.032Z,744.00
2019-03-28T08:19:11.921Z,748.00
2019-03-28T08:20:11.943Z,748.00
2019-03-28T08:21:11.875Z,748.00
2019-03-28T08:22:11.955Z,744.00
2019-03-28T08:23:11.822Z,744.00
2019-03-28T08:24:11.795Z,740.00
2019-03-28T08:25:12.351Z,732.00
2019-03-28T08:26:11.757Z,724.00
2019-03-28T08:27:11.802Z,720.00
2019-03-28T08:28:11.703Z,724.00
2019-03-28T08:29:11.802Z,728.00
2019-03-28T08:30:18.229Z,736.00
2019-03-28T08:31:11.711Z,740.00
2019-03-28T08:32:13.546Z,740.00
2019-03-28T08:33:11.618Z,760.00
2019-03-28T08:34:11.534Z,788.00
2019-03-28T08:35:11.514Z,812.00
2019-03-28T08:36:11.482Z,832.00
2019-03-28T08:37:11.556Z,848.00
2019-03-28T08:38:11.445Z,856.00
2019-03-28T08:39:11.481Z,860.00
2019-03-28T08:40:11.475Z,860.00
2019-03-28T08:41:11.357Z,860.00
2019-03-28T08:42:11.442Z,856.00
2019-03-28T08:43:11.313Z,852.00
2019-03-28T08:44:11.399Z,852.00
2019-03-28T08:45:11.253Z,852.00
2019-03-28T08:46:11.233Z,860.00
2019-03-28T08:47:11.315Z,864.00
2019-03-28T08:48:11.183Z,868.00
2019-03-28T08:49:11.227Z,880.00
2019-03-28T08:50:11.132Z,888.00
2019-03-28T08:51:11.107Z,900.00
2019-03-28T08:52:11.961Z,908.00
2019-03-28T08:53:11.151Z,916.00
2019-03-28T08:54:11.035Z,920.00
2019-03-28T08:55:11.078Z,920.00
2019-03-28T08:56:10.971Z,920.00
2019-03-28T08:57:10.976Z,920.00
2019-03-28T08:58:10.922Z,920.00
2019-03-28T08:59:10.994Z,924.00
2019-03-28T09:00:10.874Z,936.00
2019-03-28T09:01:18.241Z,944.00
2019-03-28T09:03:14.901Z,968.00
2019-03-28T09:04:14.815Z,984.00
2019-03-28T09:06:18.835Z,1004.00
2019-03-28T09:07:18.812Z,1020.00
2019-03-28T09:09:22.753Z,1072.00
2019-03-28T09:10:22.653Z,1104.00
2019-03-28T09:12:26.663Z,1148.00
2019-03-28T09:13:26.563Z,1164.00
2019-03-28T09:14:26.643Z,1176.00
2019-03-28T09:15:26.515Z,1184.00
2019-03-28T09:16:26.553Z,1200.00
2019-03-28T09:17:26.477Z,1208.00
2019-03-28T09:18:26.442Z,1224.00
2019-03-28T09:19:26.455Z,1240.00
2019-03-28T09:20:26.472Z,1244.00
2019-03-28T09:21:26.375Z,1252.00
2019-03-28T09:22:26.385Z,1248.00
2019-03-28T09:23:26.316Z,1248.00
2019-03-28T09:24:26.403Z,1244.00
2019-03-28T09:25:26.269Z,1248.00
2019-03-28T09:26:26.312Z,1252.00
2019-03-28T09:27:26.212Z,1252.00
2019-03-28T09:28:26.234Z,1256.00
2019-03-28T09:29:26.234Z,1260.00
2019-03-28T09:30:26.135Z,1268.00
2019-03-28T09:31:26.149Z,1284.00
2019-03-28T09:32:26.084Z,1304.00
2019-03-28T09:33:26.152Z,1328.00
2019-03-28T09:34:26.064Z,1356.00
2019-03-28T09:35:26.015Z,1392.00
2019-03-28T09:36:26.074Z,1432.00
2019-03-28T09:37:25.963Z,1484.00
2019-03-28T09:38:25.983Z,1552.00
2019-03-28T09:39:25.913Z,1616.00
2019-03-28T09:40:25.894Z,1668.00
2019-03-28T09:41:25.915Z,1716.00
2019-03-28T09:42:25.834Z,1756.00
2019-03-28T09:43:25.923Z,1784.00
2019-03-28T09:44:25.783Z,1808.00
2019-03-28T09:45:25.766Z,1816.00
2019-03-28T09:46:25.735Z,1808.00
2019-03-28T09:47:25.744Z,1784.00
2019-03-28T09:48:25.682Z,1752.00
2019-03-28T09:49:25.754Z,1716.00
2019-03-28T09:50:25.639Z,1676.00
2019-03-28T09:51:25.706Z,1636.00
2019-03-28T09:52:25.593Z,1592.00
2019-03-28T09:53:25.694Z,1552.00
2019-03-28T09:54:25.547Z,1504.00
2019-03-28T09:55:25.609Z,1460.00
2019-03-28T09:56:25.604Z,1416.00
2019-03-28T09:57:25.464Z,1380.00
2019-03-28T09:58:25.513Z,1352.00
2019-03-28T09:59:25.434Z,1336.00
2019-03-28T10:00:25.425Z,1324.00
2019-03-28T10:01:25.434Z,1328.00
2019-03-28T10:02:25.343Z,1332.00
2019-03-28T10:03:25.371Z,1340.00
2019-03-28T10:04:25.294Z,1352.00
2019-03-28T10:05:25.363Z,1368.00
2019-03-28T10:06:25.243Z,1384.00
2019-03-28T10:07:25.227Z,1400.00
2019-03-28T10:08:25.198Z,1416.00
2019-03-28T10:09:25.284Z,1432.00
2019-03-28T10:10:25.145Z,1456.00
2019-03-28T10:11:25.305Z,1488.00
2019-03-28T10:12:25.117Z,1512.00
2019-03-28T10:13:25.214Z,1568.00
2019-03-28T10:14:25.043Z,1616.00
2019-03-28T10:15:25.147Z,1664.00
2019-03-28T10:16:25.003Z,1704.00
2019-03-28T10:17:25.138Z,1732.00
2019-03-28T10:18:24.953Z,1752.00
2019-03-28T10:19:25.061Z,1780.00
2019-03-28T10:20:24.903Z,1816.00
2019-03-28T10:21:25.063Z,1860.00
2019-03-28T10:22:24.861Z,1924.00
2019-03-28T10:23:24.972Z,2000.00
2019-03-28T10:24:24.804Z,2068.00
2019-03-28T10:25:24.889Z,2140.00
2019-03-28T10:26:24.758Z,2196.00
2019-03-28T10:27:24.903Z,2244.00
2019-03-28T10:28:24.725Z,2296.00
2019-03-28T10:29:24.685Z,2352.00
2019-03-28T10:30:24.862Z,2420.00
2019-03-28T10:31:24.633Z,2484.00
2019-03-28T10:32:24.734Z,2528.00
2019-03-28T10:33:24.826Z,2548.00
2019-03-28T10:34:24.643Z,2524.00
2019-03-28T10:35:24.544Z,2472.00
2019-03-28T10:36:27.699Z,2424.00
2019-03-28T10:37:24.495Z,2416.00
2019-03-28T10:38:24.675Z,2452.00
2019-03-28T10:39:24.444Z,2532.00
2019-03-28T10:40:24.425Z,2656.00
2019-03-28T10:41:25.862Z,2780.00
2019-03-28T10:42:24.494Z,2904.00
2019-03-28T10:43:24.353Z,2976.00
2019-03-28T10:44:24.514Z,3020.00
2019-03-28T10:45:24.302Z,3060.00
2019-03-28T10:46:24.284Z,3140.00
2019-03-28T10:47:24.424Z,3288.00
2019-03-28T10:48:24.234Z,3472.00
2019-03-28T10:49:24.345Z,3696.00
2019-03-28T10:50:24.184Z,3884.00
2019-03-28T10:51:24.164Z,4012.00
2019-03-28T10:52:24.144Z,4024.00
2019-03-28T10:53:24.165Z,3976.00
2019-03-28T10:54:25.701Z,3912.00
2019-03-28T10:55:24.174Z,3864.00
2019-03-28T10:56:24.417Z,3788.00
2019-03-28T10:57:29.916Z,3652.00
2019-03-28T10:58:24.658Z,3560.00
2019-03-28T10:59:24.667Z,3504.00
2019-03-28T11:00:25.248Z,3520.00
2019-03-28T11:01:41.434Z,3608.00
2019-03-28T11:02:23.904Z,3752.00
2019-03-28T11:03:23.923Z,3912.00
2019-03-28T11:04:23.867Z,4056.00
2019-03-28T11:05:23.947Z,4164.00
2019-03-28T11:06:23.824Z,4228.00
2019-03-28T11:07:24.614Z,4288.00
2019-03-28T11:08:23.777Z,4324.00
2019-03-28T11:09:23.755Z,4296.00
2019-03-28T11:10:23.776Z,4172.00
2019-03-28T11:11:23.705Z,3972.00
2019-03-28T11:12:23.786Z,3740.00
2019-03-28T11:13:23.665Z,3532.00
2019-03-28T11:14:23.643Z,3384.00
2019-03-28T11:15:23.703Z,3312.00
2019-03-28T11:16:23.607Z,3332.00
2019-03-28T11:17:23.616Z,3432.00
2019-03-28T11:18:23.553Z,3596.00
2019-03-28T11:19:23.539Z,3760.00
2019-03-28T11:20:23.515Z,3896.00
2019-03-28T11:21:23.542Z,3980.00
2019-03-28T11:22:23.464Z,4068.00
2019-03-28T11:23:23.466Z,4128.00
2019-03-28T11:24:23.434Z,4224.00
2019-03-28T11:25:23.394Z,4324.00
2019-03-28T11:26:23.474Z,4412.00
2019-03-28T11:27:23.665Z,4440.00
2019-03-28T11:28:23.593Z,4388.00
2019-03-28T11:29:23.308Z,4292.00
2019-03-28T11:30:23.285Z,4204.00
2019-03-28T11:31:23.266Z,4160.00
2019-03-28T11:32:23.316Z,4216.00
2019-03-28T11:33:23.222Z,4332.00
2019-03-28T11:34:23.243Z,4488.00
2019-03-28T11:35:23.172Z,4656.00
2019-03-28T11:36:23.152Z,4828.00
2019-03-28T11:37:26.472Z,4988.00
2019-03-28T11:38:23.153Z,5152.00
2019-03-28T11:39:23.228Z,5332.00
2019-03-28T11:40:24.678Z,5528.00
2019-03-28T11:41:23.072Z,5736.00
2019-03-28T11:42:23.029Z,5912.00
2019-03-28T11:43:23.100Z,6008.00
2019-03-28T11:44:22.973Z,6020.00
2019-03-28T11:45:23.005Z,5952.00
2019-03-28T11:46:22.944Z,5832.00
2019-03-28T11:47:23.862Z,5704.00
2019-03-28T11:48:22.923Z,5628.00
2019-03-28T11:49:22.877Z,5712.00
2019-03-28T11:50:22.934Z,5840.00
2019-03-28T11:51:22.834Z,6060.00
2019-03-28T11:52:22.803Z,6324.00
2019-03-28T11:53:22.784Z,6516.00
2019-03-28T11:54:22.871Z,6572.00
2019-03-28T11:55:22.742Z,6544.00
2019-03-28T11:56:22.776Z,6240.00
2019-03-28T11:57:22.704Z,6008.00
2019-03-28T11:58:22.787Z,5812.00
2019-03-28T11:59:22.664Z,5708.00
2019-03-28T12:00:22.695Z,5716.00
2019-03-28T12:01:22.613Z,5780.00
2019-03-28T12:02:25.188Z,5860.00
2019-03-28T12:03:22.578Z,5976.00
2019-03-28T12:04:22.623Z,6036.00
2019-03-28T12:05:22.533Z,6092.00
2019-03-28T12:06:22.532Z,6076.00
2019-03-28T12:07:22.724Z,6024.00
2019-03-28T12:08:22.475Z,6004.00
2019-03-28T12:09:23.071Z,6032.00
2019-03-28T12:10:22.463Z,6020.00
2019-03-28T12:11:22.408Z,5988.00
2019-03-28T12:12:22.482Z,5892.00
2019-03-28T12:13:22.368Z,5804.00
2019-03-28T12:14:22.423Z,5752.00
2019-03-28T12:15:22.397Z,5772.00
2019-03-28T12:16:22.306Z,5884.00
2019-03-28T12:17:22.319Z,5952.00
2019-03-28T12:18:24.999Z,5920.00
2019-03-28T12:19:22.245Z,5684.00
2019-03-28T12:20:22.334Z,5324.00
2019-03-28T12:21:22.194Z,4956.00
2019-03-28T12:22:22.242Z,4636.00
2019-03-28T12:23:22.465Z,4440.00
2019-03-28T12:24:22.156Z,4408.00
2019-03-28T12:25:22.116Z,4496.00
2019-03-28T12:26:22.175Z,4672.00
2019-03-28T12:27:22.083Z,4960.00
2019-03-28T12:28:22.083Z,5104.00
2019-03-28T12:29:22.034Z,5264.00
2019-03-28T12:30:22.015Z,5544.00
2019-03-28T12:31:21.995Z,5996.00
2019-03-28T12:32:22.002Z,6520.00
2019-03-28T12:33:21.951Z,6944.00
2019-03-28T12:34:22.023Z,7080.00
2019-03-28T12:35:21.912Z,7172.00
2019-03-28T12:36:21.893Z,7000.00
2019-03-28T12:37:21.942Z,7104.00
2019-03-28T12:38:21.853Z,7084.00
2019-03-28T12:39:21.864Z,7112.00
2019-03-28T12:40:21.804Z,6884.00
2019-03-28T12:41:21.783Z,6832.00
2019-03-28T12:42:21.785Z,6844.00
2019-03-28T12:43:21.776Z,6408.00
2019-03-28T12:44:21.733Z,6188.00
2019-03-28T12:45:21.803Z,6112.00
2019-03-28T12:46:21.683Z,6220.00
2019-03-28T12:47:21.663Z,6176.00
2019-03-28T12:48:21.714Z,6656.00
2019-03-28T12:49:21.633Z,6580.00
2019-03-28T12:50:21.622Z,6512.00
2019-03-28T12:51:22.319Z,6384.00
2019-03-28T12:52:21.571Z,6336.00
2019-03-28T12:53:21.554Z,6256.00
2019-03-28T12:54:21.552Z,6064.00
2019-03-28T12:55:21.513Z,5896.00
2019-03-28T12:56:21.561Z,5836.00
2019-03-28T12:57:21.478Z,5620.00
2019-03-28T12:58:22.420Z,5520.00
2019-03-28T12:59:21.484Z,5404.00
2019-03-28T13:00:21.412Z,5080.00
2019-03-28T13:01:22.574Z,4940.00
2019-03-28T13:02:29.903Z,4440.00
2019-03-28T13:03:21.423Z,4264.00
2019-03-28T13:04:21.349Z,4252.00
2019-03-28T13:05:21.427Z,4156.00
2019-03-28T13:06:21.316Z,4516.00
2019-03-28T13:07:21.337Z,4408.00
2019-03-28T13:08:21.262Z,4112.00
2019-03-28T13:09:21.242Z,4148.00
2019-03-28T13:10:21.364Z,4088.00
2019-03-28T13:11:21.203Z,4204.00
2019-03-28T13:12:21.282Z,4088.00
2019-03-28T13:13:21.173Z,3924.00
2019-03-28T13:14:21.557Z,3752.00
2019-03-28T13:15:21.135Z,3804.00
2019-03-28T13:16:21.218Z,3836.00
2019-03-28T13:17:21.092Z,3728.00
2019-03-28T13:18:21.216Z,3536.00
2019-03-28T13:19:21.054Z,3476.00
2019-03-28T13:20:22.416Z,3412.00
2019-03-28T13:21:21.017Z,3372.00
2019-03-28T13:22:21.131Z,3368.00
2019-03-28T13:23:20.972Z,3380.00
2019-03-28T13:24:21.054Z,3404.00
2019-03-28T13:25:21.057Z,3456.00
2019-03-28T13:26:20.924Z,3720.00
2019-03-28T13:27:20.979Z,3680.00
2019-03-28T13:28:20.889Z,3580.00
2019-03-28T13:29:20.983Z,3340.00
2019-03-28T13:30:20.845Z,3268.00
2019-03-28T13:31:20.822Z,3072.00
2019-03-28T13:32:22.953Z,2936.00
2019-03-28T13:33:20.795Z,2796.00
2019-03-28T13:34:20.937Z,2660.00
2019-03-28T13:35:20.743Z,2536.00
2019-03-28T13:36:20.723Z,2448.00